createdAt,value
2019-03-22T00:02:29.152Z,36.28
2019-03-22T00:05:00.373Z,32.48
2019-03-22T00:07:31.429Z,34.13
2019-03-22T00:10:02.654Z,35.05
2019-03-22T00:12:33.626Z,27.20
2019-03-22T00:15:06.834Z,31.02
2019-03-22T00:17:38.197Z,33.83
2019-03-22T00:20:09.340Z,27.80
2019-03-22T00:22:40.536Z,36.50
2019-03-22T00:25:11.694Z,35.60
2019-03-22T00:27:42.655Z,31.50
2019-03-22T00:30:13.626Z,38.53
2019-03-22T00:32:44.747Z,37.13
2019-03-22T00:35:15.918Z,35.73
2019-03-22T00:37:47.117Z,32.78
2019-03-22T00:40:19.089Z,35.20
2019-03-22T00:42:50.028Z,38.58
2019-03-22T00:45:21.174Z,33.35
2019-03-22T00:47:52.136Z,36.63
2019-03-22T00:50:23.226Z,38.30
2019-03-22T00:52:54.478Z,35.83
2019-03-22T00:55:25.482Z,34.50
2019-03-22T00:57:56.408Z,33.42
2019-03-22T01:00:29.718Z,33.20
2019-03-22T01:03:01.003Z,34.38
2019-03-22T01:05:32.134Z,28.50
2019-03-22T01:08:03.229Z,28.98
2019-03-22T01:10:34.215Z,33.80
2019-03-22T01:13:05.337Z,34.73
2019-03-22T01:15:36.294Z,30.20
2019-03-22T01:18:07.312Z,34.55
2019-03-22T01:20:38.363Z,34.27
2019-03-22T01:23:09.482Z,38.20
2019-03-22T01:25:40.421Z,37.28
2019-03-22T01:28:11.352Z,34.10
2019-03-22T01:30:42.433Z,35.68
2019-03-22T01:33:13.330Z,37.35
2019-03-22T01:35:44.354Z,36.00
2019-03-22T01:38:15.367Z,37.45
2019-03-22T01:40:47.282Z,39.03
2019-03-22T01:43:19.253Z,38.58
2019-03-22T01:45:50.470Z,38.80
2019-03-22T01:48:21.395Z,39.70
2019-03-22T01:50:52.378Z,37.85
2019-03-22T01:53:23.580Z,38.83
2019-03-22T01:55:54.581Z,40.55
2019-03-22T01:58:25.624Z,39.03
2019-03-22T02:00:58.706Z,42.83
2019-03-22T02:03:29.814Z,44.00
2019-03-22T02:06:00.857Z,44.93
2019-03-22T02:08:31.797Z,38.33
2019-03-22T02:11:03.079Z,44.27
2019-03-22T02:16:06.362Z,37.75
2019-03-22T02:18:38.515Z,42.62
2019-03-22T02:21:09.574Z,36.65
2019-03-22T02:23:40.794Z,45.08
2019-03-22T02:26:11.895Z,38.67
2019-03-22T02:28:42.901Z,40.90
2019-03-22T02:31:13.959Z,37.67
2019-03-22T02:33:44.881Z,43.10
2019-03-22T02:36:15.969Z,40.95
2019-03-22T02:38:46.966Z,48.02
2019-03-22T02:41:18.873Z,43.58
2019-03-22T02:43:49.819Z,42.83
2019-03-22T02:46:21.127Z,47.45
2019-03-22T02:48:52.096Z,45.78
2019-03-22T02:51:23.127Z,43.40
2019-03-22T02:53:54.174Z,40.23
2019-03-22T02:56:25.213Z,41.28
2019-03-22T02:58:59.209Z,43.25
2019-03-22T03:01:29.042Z,41.77
2019-03-22T03:03:59.994Z,45.65
2019-03-22T03:06:31.030Z,40.23
2019-03-22T03:09:01.974Z,47.83
2019-03-22T03:11:34.092Z,48.28
2019-03-22T03:14:05.083Z,45.55
2019-03-22T03:16:36.112Z,47.85
2019-03-22T03:19:07.045Z,41.23
2019-03-22T03:21:38.061Z,43.35
2019-03-22T03:24:08.979Z,38.45
2019-03-22T03:26:39.912Z,36.98
2019-03-22T03:29:10.964Z,41.18
2019-03-22T03:31:41.937Z,41.18
2019-03-22T03:34:12.852Z,44.90
2019-03-22T03:36:43.904Z,44.33
2019-03-22T03:39:14.837Z,46.63
2019-03-22T03:41:46.918Z,43.00
2019-03-22T03:44:17.961Z,43.28
2019-03-22T03:46:48.980Z,47.27
2019-03-22T03:49:19.893Z,44.42
2019-03-22T03:51:50.933Z,42.43
2019-03-22T03:54:21.866Z,46.42
2019-03-22T03:56:53.020Z,46.83
2019-03-22T03:59:24.001Z,48.73
2019-03-22T04:01:55.122Z,47.75
2019-03-22T04:04:34.857Z,46.15
2019-03-22T04:07:05.840Z,54.67
2019-03-22T04:09:36.751Z,57.70
2019-03-22T04:12:07.769Z,45.25
2019-03-22T04:14:38.854Z,45.90
2019-03-22T04:17:09.883Z,48.73
2019-03-22T04:19:40.987Z,52.17
2019-03-22T04:22:12.157Z,48.42
2019-03-22T04:24:43.088Z,51.02
2019-03-22T04:27:14.032Z,49.98
2019-03-22T04:29:45.087Z,51.33
2019-03-22T04:32:16.137Z,48.63
2019-03-22T04:34:47.300Z,47.73
2019-03-22T04:37:18.366Z,56.68
2019-03-22T04:39:49.568Z,55.00
2019-03-22T04:42:21.441Z,54.25
2019-03-22T04:44:52.488Z,51.58
2019-03-22T04:47:23.607Z,57.75
2019-03-22T04:49:54.628Z,57.48
2019-03-22T04:52:25.823Z,56.02
2019-03-22T04:54:57.577Z,55.55
2019-03-22T04:57:28.942Z,56.25
2019-03-22T05:00:00.370Z,52.40
2019-03-22T05:02:39.802Z,51.42
2019-03-22T05:05:15.108Z,47.08
2019-03-22T05:07:46.182Z,51.98
2019-03-22T05:10:17.188Z,47.45
2019-03-22T05:12:51.340Z,52.62
2019-03-22T05:15:23.124Z,41.35
2019-03-22T05:17:54.843Z,44.83
2019-03-22T05:20:25.811Z,44.58
2019-03-22T05:22:56.892Z,44.55
2019-03-22T05:25:27.899Z,45.35
2019-03-22T05:27:58.880Z,51.33
2019-03-22T05:30:53.813Z,49.03
2019-03-22T05:33:25.122Z,53.08
2019-03-22T05:35:56.255Z,48.63
2019-03-22T05:38:27.331Z,41.13
2019-03-22T17:53:44.083Z,6.12
2019-03-22T17:56:15.217Z,4.43
2019-03-22T17:58:49.226Z,5.97
2019-03-22T18:01:20.217Z,9.10
2019-03-22T18:03:51.232Z,3.62
2019-03-22T18:06:22.296Z,5.20
2019-03-22T18:08:55.073Z,6.03
2019-03-22T18:11:34.816Z,11.90
2019-03-22T18:14:05.772Z,7.17
2019-03-22T18:16:39.977Z,10.58
2019-03-22T18:19:13.639Z,14.43
2019-03-22T18:21:44.663Z,14.87
2019-03-22T18:24:17.234Z,14.38
2019-03-22T18:26:52.987Z,24.72
2019-03-22T18:29:24.364Z,13.72
2019-03-22T18:31:55.727Z,11.90
2019-03-22T18:34:33.974Z,15.45
2019-03-22T18:37:01.155Z,11.18
2019-03-22T18:39:32.571Z,11.48
2019-03-22T18:42:03.786Z,9.58
2019-03-22T18:44:35.352Z,12.30
2019-03-22T18:47:06.360Z,7.70
2019-03-22T18:49:43.707Z,9.08
2019-03-22T18:52:14.689Z,8.95
2019-03-22T18:54:46.162Z,7.83
2019-03-22T18:57:17.301Z,8.70
2019-03-22T18:59:48.317Z,23.32
2019-03-22T19:02:19.521Z,9.03
2019-03-22T19:04:50.499Z,9.25
2019-03-22T19:07:23.387Z,11.40
2019-03-22T19:09:58.994Z,9.20
2019-03-22T19:12:30.137Z,10.90
2019-03-22T19:15:02.264Z,12.43
2019-03-22T19:17:35.023Z,10.60
2019-03-22T19:20:09.477Z,10.30
2019-03-22T19:22:40.549Z,14.70
2019-03-22T19:25:14.508Z,15.17
2019-03-22T19:27:45.969Z,11.53
2019-03-22T19:30:19.348Z,9.25
2019-03-22T19:32:50.803Z,9.48
2019-03-22T19:35:31.630Z,7.05
2019-03-22T19:38:02.634Z,6.22
2019-03-22T19:40:33.732Z,8.03
2019-03-22T19:43:04.846Z,6.42
2019-03-22T19:45:35.944Z,8.83
2019-03-22T19:48:06.993Z,7.00
2019-03-22T19:50:38.135Z,7.85
2019-03-22T19:53:10.871Z,5.60
2019-03-22T19:55:44.551Z,6.78
2019-03-22T19:58:15.665Z,8.30
2019-03-22T20:00:46.714Z,7.97
2019-03-22T20:03:21.534Z,7.05
2019-03-22T20:05:52.545Z,8.08
2019-03-22T20:08:24.038Z,7.80
2019-03-22T20:11:09.513Z,8.68
2019-03-22T20:13:49.900Z,7.80
2019-03-22T20:16:22.666Z,5.53
2019-03-22T20:18:54.005Z,6.17
2019-03-22T20:21:25.340Z,6.28
2019-03-22T20:23:57.583Z,5.85
2019-03-22T20:26:28.680Z,5.87
2019-03-22T20:28:59.777Z,5.40
2019-03-22T20:31:32.737Z,5.92
2019-03-22T20:34:05.025Z,9.15
2019-03-22T20:36:36.579Z,23.52
2019-03-22T20:39:08.029Z,11.03
2019-03-22T20:41:52.532Z,56.13
2019-03-22T20:44:34.387Z,11.50
2019-03-22T20:47:11.860Z,8.30
2019-03-22T20:49:45.527Z,7.78
2019-03-22T20:52:28.838Z,7.92
2019-03-22T20:55:25.477Z,8.85
2019-03-22T20:58:03.326Z,7.12
2019-03-22T21:00:53.086Z,6.03
2019-03-22T21:03:35.377Z,9.50
2019-03-22T21:09:21.076Z,5.03
2019-03-22T21:12:03.926Z,7.47
2019-03-22T21:14:38.756Z,6.03
2019-03-22T21:17:34.304Z,9.48
2019-03-22T21:20:11.897Z,8.78
2019-03-22T21:22:47.126Z,8.03
2019-03-22T21:25:37.579Z,7.97
2019-03-22T21:28:22.983Z,8.63
2019-03-22T21:31:02.054Z,6.65
2019-03-22T21:33:35.633Z,5.92
2019-03-22T21:36:08.367Z,6.45
2019-03-22T21:38:59.626Z,5.80
2019-03-22T21:41:50.880Z,6.12
2019-03-22T21:44:25.237Z,7.45
2019-03-22T21:49:59.686Z,8.55
2019-03-22T21:52:34.446Z,5.30
2019-03-22T21:55:45.214Z,4.70
2019-03-22T22:00:45.836Z,5.53
2019-03-22T22:03:29.106Z,10.57
2019-03-22T22:06:10.358Z,4.15
2019-03-22T22:09:04.765Z,4.65
2019-03-22T22:11:48.106Z,4.95
2019-03-22T22:14:41.328Z,6.22
2019-03-22T22:17:19.058Z,9.25
2019-03-22T22:19:57.511Z,8.43
2019-03-22T22:22:34.770Z,4.90
2019-03-22T22:25:14.741Z,4.67
2019-03-22T22:27:54.067Z,6.47
2019-03-22T22:30:34.646Z,10.32
2019-03-22T22:33:09.993Z,6.37
2019-03-22T22:35:47.072Z,3.75
2019-03-22T22:38:25.231Z,5.65
2019-03-22T22:40:57.800Z,4.65
2019-03-22T22:43:32.877Z,6.30
2019-03-22T22:46:04.803Z,6.03
2019-03-22T22:48:40.228Z,4.20
2019-03-22T22:51:20.738Z,6.25
2019-03-22T22:53:54.658Z,4.58
2019-03-22T22:56:28.386Z,8.05
2019-03-22T22:59:00.329Z,6.03
2019-03-22T23:01:31.575Z,6.58
2019-03-22T23:04:02.770Z,6.65
2019-03-22T23:06:33.941Z,5.78
2019-03-22T23:09:06.377Z,2.92
2019-03-22T23:11:39.016Z,3.40
2019-03-22T23:14:10.975Z,3.72
2019-03-22T23:16:41.841Z,3.90
2019-03-22T23:19:12.836Z,7.33
2019-03-22T23:21:43.794Z,7.10
2019-03-22T23:24:15.363Z,5.47
2019-03-22T23:26:46.560Z,7.15
2019-03-22T23:29:17.937Z,4.80
2019-03-22T23:31:49.431Z,8.53
2019-03-22T23:34:21.346Z,7.85
2019-03-22T23:36:53.287Z,7.28
2019-03-22T23:39:24.460Z,5.53
2019-03-22T23:41:55.800Z,6.15
2019-03-22T23:44:26.880Z,5.53
2019-03-22T23:46:58.116Z,4.17
2019-03-22T23:49:29.147Z,4.37
2019-03-22T23:52:00.273Z,6.03
2019-03-22T23:54:31.229Z,6.85
2019-03-22T23:57:02.361Z,3.75
2019-03-22T23:59:34.212Z,5.25
